createdAt,value
2018-11-21T00:02:06.781Z,63.70
2018-11-21T00:05:10.615Z,74.10
2018-11-21T00:08:35.820Z,69.90
2018-11-21T00:11:40.050Z,70.92
2018-11-21T00:15:02.871Z,73.00
2018-11-21T00:18:25.682Z,73.07
2018-11-21T00:21:40.905Z,78.63
2018-11-21T00:24:59.067Z,75.07
2018-11-21T00:28:15.246Z,64.10
2018-11-21T00:31:30.875Z,68.67
2018-11-21T00:34:46.782Z,72.10
2018-11-21T00:38:02.179Z,65.93
2018-11-21T00:41:17.620Z,74.40
2018-11-21T00:44:33.346Z,75.40
2018-11-21T00:47:36.917Z,71.10
2018-11-21T00:50:40.481Z,70.90
2018-11-21T00:54:03.275Z,73.30
2018-11-21T00:57:19.049Z,73.20
2018-11-21T01:00:22.596Z,71.53
2018-11-21T01:03:45.515Z,67.32
2018-11-21T01:07:08.400Z,67.87
2018-11-21T01:10:23.890Z,72.60
2018-11-21T01:13:39.718Z,69.77
2018-11-21T01:16:55.249Z,67.63
2018-11-21T01:20:10.600Z,66.43
2018-11-21T01:23:26.932Z,72.35
2018-11-21T01:26:42.295Z,68.30
2018-11-21T01:29:57.902Z,72.20
2018-11-21T01:33:13.527Z,67.20
2018-11-21T01:36:28.936Z,70.40
2018-11-21T01:39:45.005Z,78.47
2018-11-21T01:43:00.169Z,83.67
2018-11-21T01:46:03.802Z,76.23
2018-11-21T01:49:26.598Z,75.43
2018-11-21T01:52:30.133Z,69.10
2018-11-21T01:55:55.421Z,81.67
2018-11-21T01:59:18.347Z,79.83
2018-11-21T02:02:34.593Z,78.42
2018-11-21T02:05:49.816Z,78.65
2018-11-21T02:09:05.906Z,78.87
2018-11-21T02:12:10.172Z,75.55
2018-11-21T02:15:33.005Z,76.90
2018-11-21T02:18:55.783Z,76.57
2018-11-21T02:22:11.264Z,78.13
2018-11-21T02:25:27.326Z,88.47
2018-11-21T02:28:30.891Z,72.23
2018-11-21T02:31:53.743Z,83.03
2018-11-21T02:35:16.709Z,82.17
2018-11-21T02:38:20.213Z,72.30
2018-11-21T02:41:23.811Z,82.70
2018-11-21T02:44:46.601Z,83.00
2018-11-21T02:48:02.710Z,84.32
2018-11-21T02:51:19.154Z,80.45
2018-11-21T02:54:35.544Z,82.23
2018-11-21T02:57:50.172Z,87.37
2018-11-21T03:01:05.537Z,78.27
2018-11-21T03:04:21.490Z,81.17
2018-11-21T03:07:37.697Z,79.25
2018-11-21T03:10:53.289Z,81.27
2018-11-21T03:14:08.647Z,76.47
2018-11-21T03:17:24.203Z,82.97
2018-11-21T03:20:39.873Z,74.92
2018-11-21T03:23:55.936Z,83.90
2018-11-21T03:27:11.758Z,77.37
2018-11-21T03:30:15.362Z,81.30
2018-11-21T03:33:38.154Z,81.50
2018-11-21T03:37:00.947Z,72.60
2018-11-21T03:40:16.709Z,74.50
2018-11-21T03:43:32.334Z,80.70
2018-11-21T03:46:49.040Z,76.07
2018-11-21T03:50:04.527Z,73.97
2018-11-21T03:53:20.203Z,74.03
2018-11-21T03:56:36.010Z,76.92
2018-11-21T03:59:52.252Z,75.10
2018-11-21T04:06:19.046Z,72.17
2018-11-21T04:09:34.845Z,77.97
2018-11-21T04:12:50.707Z,81.90
2018-11-21T04:16:06.547Z,78.47
2018-11-21T04:19:10.404Z,77.43
2018-11-21T04:22:33.205Z,71.27
2018-11-21T04:25:48.558Z,75.57
2018-11-21T04:29:04.964Z,78.40
2018-11-21T04:32:23.627Z,74.43
2018-11-21T04:35:39.758Z,73.30
2018-11-21T04:38:55.396Z,82.60
2018-11-21T04:41:58.947Z,78.20
2018-11-21T04:45:21.751Z,83.50
2018-11-21T04:48:37.528Z,75.70
2018-11-21T04:51:53.560Z,72.47
2018-11-21T04:55:09.314Z,86.93
2018-11-21T04:58:25.229Z,82.13
2018-11-21T05:01:28.788Z,78.33
2018-11-21T05:04:51.564Z,81.63
2018-11-21T05:08:14.383Z,74.70
2018-11-21T05:11:30.319Z,75.30
2018-11-21T05:14:33.869Z,84.67
2018-11-21T05:17:37.379Z,82.22
2018-11-21T05:21:00.174Z,79.27
2018-11-21T05:24:03.733Z,71.17
2018-11-21T05:27:26.548Z,80.10
2018-11-21T05:30:42.359Z,83.07
2018-11-21T05:33:57.853Z,78.03
2018-11-21T05:37:13.788Z,72.57
2018-11-21T05:40:17.383Z,79.42
2018-11-21T05:43:20.936Z,81.40
2018-11-21T05:46:43.756Z,75.00
2018-11-21T05:49:47.284Z,76.43
2018-11-21T05:53:10.119Z,78.20
2018-11-21T05:56:13.720Z,77.33
2018-11-21T05:59:17.264Z,80.17
2018-11-21T06:02:20.808Z,74.20
2018-11-21T06:05:43.701Z,74.83
2018-11-21T06:08:59.128Z,67.97
2018-11-21T06:12:15.141Z,73.42
2018-11-21T06:15:18.637Z,78.30
2018-11-21T06:18:41.507Z,74.30
2018-11-21T06:21:45.044Z,72.60
2018-11-21T06:25:08.380Z,76.20
2018-11-21T06:28:11.884Z,81.63
2018-11-21T06:31:34.731Z,72.77
2018-11-21T06:34:57.590Z,80.87
2018-11-21T06:38:13.206Z,81.90
2018-11-21T06:41:30.740Z,77.62
2018-11-21T06:44:45.205Z,66.13
2018-11-21T06:48:01.085Z,73.87
2018-11-21T06:51:17.229Z,71.90
2018-11-21T06:54:32.618Z,69.30
2018-11-21T06:57:48.099Z,65.63
2018-11-21T07:01:04.029Z,72.70
2018-11-21T07:04:19.474Z,67.87
2018-11-21T07:07:35.396Z,70.90
2018-11-21T07:10:50.849Z,74.80
2018-11-21T07:14:07.303Z,66.77
2018-11-21T07:17:11.037Z,68.50
2018-11-21T07:20:33.841Z,68.67
2018-11-21T07:23:49.469Z,70.80
2018-11-21T07:27:05.366Z,69.67
2018-11-21T07:30:11.919Z,62.50
2018-11-21T07:33:15.476Z,69.93
2018-11-21T07:36:19.166Z,67.90
2018-11-21T07:39:23.633Z,71.33
2018-11-21T07:42:27.093Z,70.17
2018-11-21T07:45:49.025Z,66.73
2018-11-21T07:48:52.562Z,70.10
2018-11-21T07:52:15.369Z,68.23
2018-11-21T07:55:30.964Z,65.33
2018-11-21T07:58:34.499Z,80.07
2018-11-21T08:02:10.039Z,67.50
2018-11-21T08:05:18.814Z,67.00
2018-11-21T08:08:50.232Z,71.67
2018-11-21T08:12:12.782Z,67.87
2018-11-21T08:15:35.315Z,70.60
2018-11-21T08:18:56.276Z,66.83
2018-11-21T08:22:38.425Z,72.90
2018-11-21T08:26:39.550Z,64.58
2018-11-21T08:29:43.109Z,70.03
2018-11-21T08:32:46.658Z,68.07
2018-11-21T08:36:09.475Z,63.63
2018-11-21T08:39:25.435Z,67.30
2018-11-21T08:42:28.936Z,65.90
2018-11-21T08:45:32.492Z,67.63
2018-11-21T08:48:55.282Z,69.92
2018-11-21T08:52:11.270Z,64.60
2018-11-21T08:55:27.188Z,66.97
2018-11-21T08:58:31.158Z,64.77
2018-11-21T09:01:53.977Z,64.17
2018-11-21T09:05:16.867Z,58.50
2018-11-21T09:08:32.955Z,67.17
2018-11-21T09:11:48.521Z,61.60
2018-11-21T09:15:03.741Z,60.37
2018-11-21T09:18:07.246Z,61.28
2018-11-21T09:21:11.483Z,63.33
2018-11-21T09:24:34.288Z,70.37
2018-11-21T09:27:50.489Z,65.30
2018-11-21T09:31:05.822Z,67.63
2018-11-21T09:34:21.713Z,64.05
2018-11-21T09:37:25.381Z,71.13
2018-11-21T09:40:48.283Z,64.13
2018-11-21T09:44:11.431Z,67.50
2018-11-21T09:47:14.941Z,65.37
2018-11-21T09:50:23.541Z,69.80
2018-11-21T09:53:46.051Z,74.77
2018-11-21T09:57:08.852Z,79.43
2018-11-21T10:00:26.131Z,66.22
2018-11-21T10:03:41.604Z,69.07
2018-11-21T10:06:45.914Z,70.67
2018-11-21T10:10:08.760Z,61.88
2018-11-21T10:13:13.157Z,73.40
2018-11-21T10:16:16.721Z,69.70
2018-11-21T10:19:39.576Z,64.20
2018-11-21T10:22:55.641Z,77.07
2018-11-21T10:26:11.691Z,65.37
2018-11-21T10:29:15.197Z,74.97
2018-11-21T10:32:18.745Z,76.37
2018-11-21T10:35:41.585Z,68.20
2018-11-21T10:39:05.646Z,63.20
2018-11-21T10:42:21.186Z,67.53
2018-11-21T10:45:37.111Z,77.37
2018-11-21T10:48:40.677Z,63.80
2018-11-21T10:52:03.502Z,68.00
2018-11-21T10:55:07.186Z,66.20
2018-11-21T10:58:11.695Z,68.33
2018-11-21T11:01:53.563Z,73.40
2018-11-21T11:05:16.792Z,65.57
2018-11-21T11:08:58.662Z,65.13
2018-11-21T11:12:30.052Z,62.63
2018-11-21T11:15:52.757Z,65.45
2018-11-21T11:19:24.519Z,61.27
2018-11-21T11:23:03.772Z,58.58
2018-11-21T11:26:34.148Z,67.77
2018-11-21T11:30:08.746Z,61.63
2018-11-21T11:33:41.343Z,58.55
2018-11-21T11:37:23.208Z,62.87
2018-11-21T11:41:05.062Z,70.92
2018-11-21T11:44:39.347Z,63.83
2018-11-21T11:48:13.849Z,68.33
2018-11-21T11:51:48.641Z,67.70
2018-11-21T11:55:00.502Z,63.37
2018-11-21T11:58:41.687Z,67.87
2018-11-21T12:02:23.527Z,61.13
2018-11-21T12:05:46.057Z,67.27
2018-11-21T12:09:29.067Z,56.30
2018-11-21T12:13:02.973Z,66.80
2018-11-21T12:16:37.403Z,63.80
2018-11-21T12:19:59.993Z,70.90
2018-11-21T12:23:22.512Z,58.37
2018-11-21T12:26:57.161Z,66.90
2018-11-21T12:30:32.122Z,61.57
2018-11-21T12:34:06.519Z,62.57
2018-11-21T12:37:40.933Z,58.17
2018-11-21T12:41:18.509Z,61.37
2018-11-21T12:44:53.442Z,63.47
2018-11-21T12:48:28.338Z,61.40
2018-11-21T12:52:02.748Z,64.80
2018-11-21T12:58:45.560Z,73.25
2018-11-21T13:02:20.294Z,73.12
2018-11-21T13:05:55.167Z,77.12
2018-11-21T13:09:36.472Z,71.47
2018-11-21T13:13:14.091Z,77.40
2018-11-21T13:16:45.137Z,75.85
2018-11-21T13:20:18.319Z,82.30
2018-11-21T13:23:52.572Z,83.10
2018-11-21T13:27:33.207Z,82.60
2018-11-21T13:31:11.107Z,79.43
2018-11-21T13:34:46.102Z,79.23
2018-11-21T13:38:12.888Z,73.13
2018-11-21T13:41:48.085Z,75.97
2018-11-21T13:45:22.862Z,78.23
2018-11-21T13:49:00.811Z,79.72
2018-11-21T13:52:35.738Z,83.13
2018-11-21T13:55:39.354Z,80.03
2018-11-21T13:59:02.155Z,83.53
2018-11-21T14:02:18.357Z,80.90
2018-11-21T14:05:34.569Z,81.27
2018-11-21T14:08:50.498Z,77.33
2018-11-21T14:12:06.717Z,81.70
2018-11-21T14:15:10.534Z,86.85
2018-11-21T14:18:33.404Z,81.93
2018-11-21T14:21:56.238Z,84.57
2018-11-21T14:25:12.798Z,88.77
2018-11-21T14:28:16.379Z,80.03
2018-11-21T14:31:39.224Z,81.82
2018-11-21T14:34:54.774Z,80.60
2018-11-21T14:38:10.015Z,84.50
2018-11-21T14:41:24.604Z,74.70
2018-11-21T14:44:47.443Z,79.07
2018-11-21T14:48:03.239Z,85.17
2018-11-21T14:51:18.613Z,82.10
2018-11-21T14:54:34.670Z,84.70
2018-11-21T14:57:50.169Z,81.57
2018-11-21T15:01:05.660Z,80.60
2018-11-21T15:04:21.889Z,79.50
2018-11-21T15:07:37.703Z,90.40
2018-11-21T15:10:53.489Z,74.00
2018-11-21T15:14:08.999Z,83.57
2018-11-21T15:17:13.486Z,89.65
2018-11-21T15:20:36.284Z,81.77
2018-11-21T15:23:52.433Z,76.43
2018-11-21T15:27:08.612Z,87.27
2018-11-21T15:30:15.448Z,84.03
2018-11-21T15:33:38.362Z,83.93
2018-11-21T15:36:42.615Z,85.95
2018-11-21T15:40:06.746Z,76.93
2018-11-21T15:43:24.244Z,81.90
2018-11-21T15:46:45.407Z,85.90
2018-11-21T15:52:24.798Z,75.77
2018-11-21T15:55:40.723Z,82.42
2018-11-21T15:58:56.743Z,80.93
2018-11-21T16:02:12.425Z,84.47
2018-11-21T16:05:28.318Z,74.90
2018-11-21T16:08:44.451Z,76.80
2018-11-21T16:12:00.223Z,77.13
2018-11-21T16:15:05.854Z,88.37
2018-11-21T16:18:10.801Z,71.37
2018-11-21T16:21:34.529Z,86.10
2018-11-21T16:24:58.270Z,88.33
2018-11-21T16:28:14.550Z,73.60
2018-11-21T16:31:30.234Z,84.00
2018-11-21T16:34:46.300Z,78.47
2018-11-21T16:38:05.050Z,83.77
2018-11-21T16:41:21.753Z,82.93
2018-11-21T16:44:37.735Z,76.77
2018-11-21T16:47:42.750Z,88.23
2018-11-21T16:51:06.585Z,78.97
2018-11-21T16:54:31.131Z,94.07
2018-11-21T16:57:55.793Z,85.43
2018-11-21T17:01:11.489Z,80.93
2018-11-21T17:04:16.563Z,80.27
2018-11-21T17:07:40.679Z,79.80
2018-11-21T17:11:04.410Z,77.30
2018-11-21T17:14:28.164Z,75.40
2018-11-21T17:17:44.565Z,78.67
2018-11-21T17:21:00.950Z,81.97
2018-11-21T17:24:17.216Z,75.10
2018-11-21T17:27:33.748Z,79.77
2018-11-21T17:30:39.075Z,77.40
2018-11-21T17:33:45.611Z,75.78
2018-11-21T17:37:08.169Z,76.60
2018-11-21T17:40:50.514Z,70.30
2018-11-21T17:43:55.596Z,71.77
2018-11-21T17:47:19.312Z,78.03
2018-11-21T17:50:24.978Z,76.17
2018-11-21T17:53:29.889Z,70.77
2018-11-21T17:56:54.603Z,82.17
2018-11-21T17:59:58.705Z,83.73
2018-11-21T18:03:23.322Z,77.43
2018-11-21T18:06:38.856Z,74.60
2018-11-21T18:09:44.395Z,74.35
2018-11-21T18:13:09.179Z,77.60
2018-11-21T18:16:14.367Z,79.10
2018-11-21T18:19:19.274Z,79.17
2018-11-21T18:22:43.805Z,79.70
2018-11-21T18:26:00.334Z,84.93
2018-11-21T18:29:16.547Z,79.27
2018-11-21T18:32:21.469Z,83.73
2018-11-21T18:35:26.544Z,79.45
2018-11-21T18:38:50.299Z,81.97
2018-11-21T18:42:14.074Z,72.00
2018-11-21T18:45:32.006Z,77.97
2018-11-21T18:48:48.766Z,79.27
2018-11-21T18:51:54.172Z,83.53
2018-11-21T18:55:37.964Z,83.33
2018-11-21T18:59:03.517Z,80.17
2018-11-21T19:02:08.551Z,76.45
2018-11-21T19:05:32.307Z,75.90
2018-11-21T19:08:56.039Z,75.97
2018-11-21T19:12:12.159Z,73.37
2018-11-21T19:15:17.606Z,76.30
2018-11-21T19:18:41.364Z,75.35
2018-11-21T19:21:46.336Z,63.83
2018-11-21T19:24:51.280Z,74.00
2018-11-21T19:28:15.041Z,69.17
2018-11-21T19:31:20.118Z,70.50
2018-11-21T19:34:43.856Z,69.40
2018-11-21T19:38:07.544Z,69.10
2018-11-21T19:41:23.784Z,67.93
2018-11-21T19:44:28.791Z,73.87
2018-11-21T19:47:33.736Z,64.75
2018-11-21T19:50:57.475Z,73.70
2018-11-21T19:54:21.215Z,65.90
2018-11-21T19:57:37.129Z,74.40
2018-11-21T20:00:53.008Z,66.80
2018-11-21T20:04:08.992Z,69.07
2018-11-21T20:07:14.725Z,70.05
2018-11-21T20:10:38.468Z,75.85
2018-11-21T20:14:02.260Z,75.27
2018-11-21T20:17:18.085Z,74.40
2018-11-21T20:20:23.560Z,66.40
2018-11-21T20:23:28.875Z,70.40
2018-11-21T20:26:33.830Z,82.17
2018-11-21T20:29:39.160Z,70.60
2018-11-21T20:32:45.096Z,67.07
2018-11-21T20:36:08.862Z,72.10
2018-11-21T20:39:32.600Z,61.42
2018-11-21T20:42:37.580Z,64.27
2018-11-21T20:45:42.576Z,64.60
2018-11-21T20:49:11.225Z,69.30
2018-11-21T20:52:30.501Z,65.23
2018-11-21T20:55:46.558Z,68.30
2018-11-21T20:59:03.820Z,66.13
2018-11-21T21:02:08.865Z,70.87
2018-11-21T21:05:32.644Z,62.67
2018-11-21T21:08:56.330Z,64.47
2018-11-21T21:12:12.362Z,67.47
2018-11-21T21:15:29.145Z,69.50
2018-11-21T21:18:44.811Z,63.00
2018-11-21T21:22:01.415Z,66.53
2018-11-21T21:25:19.316Z,72.30
2018-11-21T21:28:24.296Z,61.20
2018-11-21T21:31:29.230Z,70.87
2018-11-21T21:34:53.001Z,59.67
2018-11-21T21:38:16.695Z,57.70
2018-11-21T21:41:32.756Z,68.93
2018-11-21T21:44:37.686Z,61.40
2018-11-21T21:48:01.448Z,60.80
2018-11-21T21:51:06.726Z,58.60
2018-11-21T21:54:30.495Z,61.90
2018-11-21T21:57:46.865Z,63.13
2018-11-21T22:01:02.761Z,58.47
2018-11-21T22:04:18.404Z,61.10
2018-11-21T22:07:23.440Z,61.77
2018-11-21T22:10:47.547Z,58.43
2018-11-21T22:14:11.277Z,60.30
2018-11-21T22:17:16.219Z,65.87
2018-11-21T22:20:39.946Z,64.73
2018-11-21T22:23:45.196Z,58.23
2018-11-21T22:27:08.937Z,63.20
2018-11-21T22:30:32.665Z,69.07
2018-11-21T22:33:37.641Z,61.37
2018-11-21T22:36:42.565Z,65.20
2018-11-21T22:40:07.259Z,58.83
2018-11-21T22:43:31.026Z,63.40
2018-11-21T22:46:47.255Z,64.93
2018-11-21T22:50:03.646Z,65.72
2018-11-21T22:53:08.622Z,67.30
2018-11-21T22:56:32.345Z,69.97
2018-11-21T22:59:37.414Z,70.70
2018-11-21T23:02:42.651Z,64.33
2018-11-21T23:05:47.608Z,64.53
2018-11-21T23:09:12.506Z,79.60
2018-11-21T23:12:28.295Z,66.33
2018-11-21T23:15:33.259Z,61.68
2018-11-21T23:18:38.264Z,66.20
2018-11-21T23:22:02.092Z,64.80
2018-11-21T23:25:07.800Z,62.23
2018-11-21T23:28:31.545Z,62.97
2018-11-21T23:31:47.798Z,67.03
2018-11-21T23:34:52.700Z,70.37
2018-11-21T23:37:57.669Z,61.33
2018-11-21T23:41:21.389Z,69.20
2018-11-21T23:44:26.330Z,65.55
2018-11-21T23:47:50.069Z,58.00
2018-11-21T23:50:55.394Z,60.77
2018-11-21T23:54:00.360Z,65.47
2018-11-21T23:57:24.931Z,66.30
